Time;durP1;ratioP1;P1;durP2;ratioP2;P2;SDS_P1;SDS_P2;PMS_P1;PMS_P2;Temp;Humidity;BMP_temperature;BMP_pressure;BME280_temperature;BME280_humidity;BME280_pressure;Samples;Min_cycle;Max_cycle;Signal;HPM_P1;HPM_P2
2023/05/12 00:02:19;;;;;;;5.57;4.90;;;;;;;;;;5073755;28;20476;-55
2023/05/12 00:04:47;;;;;;;4.07;3.77;;;;;;;;;;5073663;28;20821;-56
2023/05/12 00:07:14;;;;;;;4.43;4.03;;;;;;;;;;5073830;28;20941;-56
2023/05/12 00:09:41;;;;;;;5.10;4.33;;;;;;;;;;5073763;28;20456;-57
2023/05/12 00:12:08;;;;;;;7.87;3.90;;;;;;;;;;5073722;28;20457;-57
2023/05/12 00:14:35;;;;;;;4.63;4.23;;;;;;;;;;5073629;28;20454;-57
2023/05/12 00:17:03;;;;;;;6.10;3.70;;;;;;;;;;5073517;28;20542;-56
2023/05/12 00:19:30;;;;;;;4.53;4.13;;;;;;;;;;5073905;28;20492;-57
2023/05/12 00:21:58;;;;;;;11.00;4.60;;;;;;;;;;5073543;28;21029;-55
2023/05/12 00:24:25;;;;;;;4.80;4.40;;;;;;;;;;5073531;28;20816;-56
2023/05/12 00:26:52;;;;;;;4.23;3.83;;;;;;;;;;5073520;28;20449;-56
2023/05/12 00:29:19;;;;;;;5.20;4.27;;;;;;;;;;5073561;28;20812;-57
2023/05/12 00:31:46;;;;;;;5.43;4.17;;;;;;;;;;5073188;28;20452;-57
2023/05/12 00:34:13;;;;;;;4.37;3.97;;;;;;;;;;5073411;28;20544;-57
2023/05/12 00:36:40;;;;;;;5.20;4.30;;;;;;;;;;5072986;28;20455;-57
2023/05/12 00:39:09;;;;;;;5.07;4.63;;;;;;;;;;5072707;28;20475;-56
2023/05/12 00:41:35;;;;;;;4.63;4.23;;;;;;;;;;5073074;28;20504;-56
2023/05/12 00:44:02;;;;;;;5.87;3.93;;;;;;;;;;5073021;28;20958;-56
2023/05/12 00:46:29;;;;;;;4.90;4.27;;;;;;;;;;5073026;28;20452;-56
2023/05/12 00:48:56;;;;;;;4.43;4.10;;;;;;;;;;5073481;28;20459;-57
2023/05/12 00:51:23;;;;;;;6.50;4.70;;;;;;;;;;5073170;28;20480;-57
2023/05/12 00:53:50;;;;;;;4.90;4.07;;;;;;;;;;5073081;28;20559;-55
2023/05/12 00:56:19;;;;;;;4.77;4.33;;;;;;;;;;5072977;28;20449;-57
2023/05/12 00:58:46;;;;;;;4.20;3.97;;;;;;;;;;5073116;28;20517;-57
2023/05/12 01:01:13;;;;;;;8.53;4.17;;;;;;;;;;5072990;28;20485;-57
2023/05/12 01:03:40;;;;;;;4.33;3.93;;;;;;;;;;5073029;28;20448;-57
2023/05/12 01:06:10;;;;;;;5.10;4.10;;;;;;;;;;5073005;28;20449;-56
2023/05/12 01:08:37;;;;;;;4.20;3.90;;;;;;;;;;5073165;28;20448;-55
2023/05/12 01:11:05;;;;;;;7.00;4.43;;;;;;;;;;5072864;28;20460;-56
2023/05/12 01:13:33;;;;;;;4.07;3.80;;;;;;;;;;5072668;28;20485;-56
2023/05/12 01:16:01;;;;;;;4.50;4.10;;;;;;;;;;5072958;28;20861;-57
2023/05/12 01:18:28;;;;;;;5.40;4.40;;;;;;;;;;5072896;28;20459;-57
2023/05/12 01:20:55;;;;;;;4.53;4.13;;;;;;;;;;5072694;28;20989;-58
2023/05/12 01:23:25;;;;;;;4.50;4.10;;;;;;;;;;5072628;28;20536;-58
2023/05/12 01:25:53;;;;;;;5.10;4.63;;;;;;;;;;5072592;28;20560;-57
2023/05/12 01:28:22;;;;;;;4.23;3.93;;;;;;;;;;5072868;28;20444;-57
2023/05/12 01:30:49;;;;;;;4.43;4.07;;;;;;;;;;5072753;28;20543;-57
2023/05/12 01:33:16;;;;;;;4.07;3.67;;;;;;;;;;5072626;28;20419;-57
2023/05/12 01:35:43;;;;;;;5.03;4.63;;;;;;;;;;5072651;28;20479;-56
2023/05/12 01:38:10;;;;;;;7.60;4.07;;;;;;;;;;5072493;28;20858;-56
2023/05/12 01:40:37;;;;;;;4.93;4.50;;;;;;;;;;5072212;28;20510;-56
2023/05/12 01:43:04;;;;;;;4.67;4.27;;;;;;;;;;5072688;28;20458;-57
2023/05/12 01:45:32;;;;;;;12.43;4.90;;;;;;;;;;5072388;28;21046;-57
2023/05/12 01:47:59;;;;;;;6.40;4.13;;;;;;;;;;5072461;28;20498;-57
2023/05/12 01:50:26;;;;;;;6.80;4.40;;;;;;;;;;5076009;28;20456;-57
2023/05/12 01:52:52;;;;;;;4.57;4.17;;;;;;;;;;5076232;28;20537;-58
2023/05/12 01:55:19;;;;;;;7.07;4.60;;;;;;;;;;5076740;28;20454;-58
2023/05/12 01:57:46;;;;;;;6.73;4.03;;;;;;;;;;5076318;28;20452;-58
2023/05/12 02:00:13;;;;;;;5.20;4.53;;;;;;;;;;5076255;28;20448;-57
2023/05/12 02:02:42;;;;;;;5.97;4.20;;;;;;;;;;5076208;28;20479;-58
2023/05/12 02:05:09;;;;;;;11.13;4.90;;;;;;;;;;5076208;28;20947;-58
2023/05/12 02:07:36;;;;;;;5.33;4.93;;;;;;;;;;5076044;28;20508;-58
2023/05/12 02:10:03;;;;;;;4.77;4.13;;;;;;;;;;5076272;28;20459;-57
2023/05/12 02:12:30;;;;;;;5.33;4.47;;;;;;;;;;5076238;28;20623;-57
2023/05/12 02:14:57;;;;;;;4.47;4.17;;;;;;;;;;5076078;28;20538;-58
2023/05/12 02:17:24;;;;;;;6.00;5.00;;;;;;;;;;5076142;28;20543;-57
2023/05/12 02:19:52;;;;;;;4.80;4.40;;;;;;;;;;5076079;28;20452;-57
2023/05/12 02:22:19;;;;;;;5.23;4.70;;;;;;;;;;5075719;28;20522;-58
2023/05/12 02:24:46;;;;;;;5.20;4.70;;;;;;;;;;5075985;28;20454;-58
2023/05/12 02:27:13;;;;;;;8.50;5.00;;;;;;;;;;5075899;28;20785;-58
2023/05/12 02:29:40;;;;;;;5.20;4.70;;;;;;;;;;5075835;28;20539;-58
2023/05/12 02:32:08;;;;;;;4.90;4.50;;;;;;;;;;5075726;28;20455;-57
2023/05/12 02:34:34;;;;;;;7.57;5.13;;;;;;;;;;5075799;28;20448;-58
2023/05/12 02:37:03;;;;;;;5.53;4.70;;;;;;;;;;5075572;28;20454;-59
2023/05/12 02:39:29;;;;;;;6.93;4.67;;;;;;;;;;5075771;28;20444;-57
2023/05/12 02:41:56;;;;;;;6.03;4.40;;;;;;;;;;5075465;28;20496;-58
2023/05/12 02:44:23;;;;;;;7.27;5.20;;;;;;;;;;5075526;28;20543;-58
2023/05/12 02:46:50;;;;;;;4.80;4.33;;;;;;;;;;5075483;28;20814;-58
2023/05/12 02:49:17;;;;;;;5.50;4.37;;;;;;;;;;5075336;28;20453;-58
2023/05/12 02:51:44;;;;;;;5.30;4.47;;;;;;;;;;5075488;28;20448;-59
2023/05/12 02:54:12;;;;;;;9.83;4.30;;;;;;;;;;5075307;28;20543;-57
2023/05/12 02:56:39;;;;;;;11.63;5.10;;;;;;;;;;5075243;28;20454;-57
2023/05/12 02:59:06;;;;;;;5.00;4.53;;;;;;;;;;5075217;28;20447;-58
2023/05/12 03:01:33;;;;;;;5.80;4.63;;;;;;;;;;5074090;28;20467;-59
2023/05/12 03:03:59;;;;;;;5.37;4.77;;;;;;;;;;5075081;28;20455;-58
2023/05/12 03:06:26;;;;;;;5.30;4.63;;;;;;;;;;5075238;28;20916;-58
2023/05/12 03:08:54;;;;;;;6.43;4.30;;;;;;;;;;5075162;28;20448;-58
2023/05/12 03:11:22;;;;;;;6.93;4.60;;;;;;;;;;5075074;28;20464;-57
2023/05/12 03:13:49;;;;;;;5.93;4.17;;;;;;;;;;5074979;28;20521;-58
2023/05/12 03:16:17;;;;;;;6.10;5.00;;;;;;;;;;5074796;28;20455;-58
2023/05/12 03:18:44;;;;;;;7.00;5.30;;;;;;;;;;5075025;28;21016;-59
2023/05/12 03:21:11;;;;;;;5.23;4.23;;;;;;;;;;5074992;28;20924;-58
2023/05/12 03:23:38;;;;;;;5.37;4.63;;;;;;;;;;5074824;28;20449;-57
2023/05/12 03:26:05;;;;;;;5.83;4.90;;;;;;;;;;5074684;28;20935;-58
2023/05/12 03:28:33;;;;;;;5.23;4.70;;;;;;;;;;5074634;28;20450;-59
2023/05/12 03:31:00;;;;;;;5.83;5.23;;;;;;;;;;5074441;28;20449;-57
2023/05/12 03:33:28;;;;;;;9.20;5.03;;;;;;;;;;5074678;28;20536;-57
2023/05/12 03:35:55;;;;;;;10.43;5.27;;;;;;;;;;5074511;28;20452;-58
2023/05/12 03:38:22;;;;;;;4.97;4.47;;;;;;;;;;5074507;28;20452;-58
2023/05/12 03:40:51;;;;;;;4.93;4.43;;;;;;;;;;5074133;28;20876;-57
2023/05/12 03:43:18;;;;;;;5.80;5.30;;;;;;;;;;5074185;28;21005;-57
2023/05/12 03:45:46;;;;;;;10.77;8.27;;;;;;;;;;5074678;28;20855;-57
2023/05/12 03:48:13;;;;;;;16.63;8.17;;;;;;;;;;5074358;28;20538;-58
2023/05/12 03:50:40;;;;;;;7.70;7.00;;;;;;;;;;5074299;28;20543;-58
2023/05/12 03:53:07;;;;;;;6.70;5.77;;;;;;;;;;5074182;28;20542;-57
2023/05/12 03:55:34;;;;;;;7.87;6.50;;;;;;;;;;5074091;28;20454;-57
2023/05/12 03:58:01;;;;;;;6.90;5.50;;;;;;;;;;5074183;28;20542;-57
2023/05/12 04:00:28;;;;;;;7.90;4.77;;;;;;;;;;5074165;28;20963;-57
2023/05/12 04:02:56;;;;;;;11.83;6.13;;;;;;;;;;5073834;28;20506;-57
2023/05/12 04:05:23;;;;;;;6.07;5.40;;;;;;;;;;5073967;28;20448;-55
2023/05/12 04:07:50;;;;;;;6.30;5.70;;;;;;;;;;5073831;28;20452;-57
2023/05/12 04:10:17;;;;;;;5.67;4.40;;;;;;;;;;5074012;28;20546;-57
2023/05/12 04:12:44;;;;;;;5.00;4.43;;;;;;;;;;5073671;28;20514;-57
2023/05/12 04:15:13;;;;;;;7.10;5.00;;;;;;;;;;5073878;28;20419;-58
2023/05/12 04:17:40;;;;;;;10.53;5.87;;;;;;;;;;5073768;28;20458;-57
2023/05/12 04:20:09;;;;;;;8.23;5.17;;;;;;;;;;5073506;28;21015;-57
2023/05/12 04:22:36;;;;;;;7.70;5.30;;;;;;;;;;5073350;28;21017;-57
2023/05/12 04:25:03;;;;;;;7.90;5.37;;;;;;;;;;5073394;28;20543;-57
2023/05/12 04:27:30;;;;;;;6.53;4.30;;;;;;;;;;5073596;28;20443;-58
2023/05/12 04:29:57;;;;;;;5.40;4.33;;;;;;;;;;5073362;28;20949;-57
2023/05/12 04:32:24;;;;;;;5.93;5.00;;;;;;;;;;5073596;28;20444;-57
2023/05/12 04:34:54;;;;;;;4.77;4.30;;;;;;;;;;5073375;28;20483;-56
2023/05/12 04:37:22;;;;;;;7.47;5.37;;;;;;;;;;5073275;28;20448;-58
2023/05/12 04:39:49;;;;;;;6.40;4.90;;;;;;;;;;5073106;28;20484;-57
2023/05/12 04:42:16;;;;;;;4.80;4.50;;;;;;;;;;5072827;28;20570;-57
2023/05/12 04:44:44;;;;;;;9.50;5.10;;;;;;;;;;5073329;28;20810;-57
2023/05/12 04:47:11;;;;;;;11.90;5.20;;;;;;;;;;5073239;28;20440;-56
2023/05/12 04:49:38;;;;;;;5.20;4.80;;;;;;;;;;5073165;28;20453;-57
2023/05/12 04:52:06;;;;;;;8.07;5.17;;;;;;;;;;5072969;28;20939;-57
2023/05/12 04:54:34;;;;;;;12.00;5.07;;;;;;;;;;5073217;28;20522;-57
2023/05/12 04:57:01;;;;;;;9.27;4.60;;;;;;;;;;5073167;28;20443;-56
2023/05/12 04:59:28;;;;;;;5.50;4.70;;;;;;;;;;5073091;28;20444;-57
2023/05/12 05:01:55;;;;;;;5.77;4.67;;;;;;;;;;5072826;28;20541;-56
2023/05/12 05:04:22;;;;;;;5.50;5.00;;;;;;;;;;5072871;28;20452;-57
2023/05/12 05:06:49;;;;;;;5.30;4.80;;;;;;;;;;5072804;28;20448;-57
2023/05/12 05:09:15;;;;;;;9.10;5.27;;;;;;;;;;5073043;28;20458;-57
2023/05/12 05:11:44;;;;;;;6.40;4.60;;;;;;;;;;5073102;28;20545;-57
2023/05/12 05:14:11;;;;;;;6.17;4.97;;;;;;;;;;5072836;28;20454;-57
2023/05/12 05:16:38;;;;;;;5.77;4.87;;;;;;;;;;5072824;28;20916;-57
2023/05/12 05:19:05;;;;;;;7.43;5.00;;;;;;;;;;5072711;28;20450;-58
2023/05/12 05:21:33;;;;;;;7.67;4.50;;;;;;;;;;5072570;28;20535;-57
2023/05/12 05:24:00;;;;;;;9.80;5.53;;;;;;;;;;5075982;28;20489;-58
2023/05/12 05:26:27;;;;;;;7.60;5.07;;;;;;;;;;5079588;28;20453;-57
2023/05/12 05:28:55;;;;;;;5.43;4.93;;;;;;;;;;5079382;28;20452;-57
2023/05/12 05:31:22;;;;;;;5.67;5.10;;;;;;;;;;5079261;28;20505;-58
2023/05/12 05:33:49;;;;;;;5.10;4.70;;;;;;;;;;5079180;28;20448;-57
2023/05/12 05:36:16;;;;;;;7.50;5.10;;;;;;;;;;5079316;28;20455;-58
2023/05/12 05:38:43;;;;;;;5.30;4.80;;;;;;;;;;5079267;28;20459;-57
2023/05/12 05:41:10;;;;;;;11.33;5.10;;;;;;;;;;5079103;28;20485;-57
2023/05/12 05:43:37;;;;;;;6.20;4.50;;;;;;;;;;5078974;28;20575;-57
2023/05/12 05:46:05;;;;;;;5.67;5.10;;;;;;;;;;5078919;28;20453;-57
2023/05/12 05:48:32;;;;;;;5.30;4.80;;;;;;;;;;5078963;28;20447;-58
2023/05/12 05:50:59;;;;;;;6.93;5.00;;;;;;;;;;5079257;28;20490;-58
2023/05/12 05:53:26;;;;;;;8.33;4.80;;;;;;;;;;5079123;28;20539;-57
2023/05/12 05:55:53;;;;;;;6.50;4.40;;;;;;;;;;5078898;28;20942;-57
2023/05/12 05:58:20;;;;;;;9.60;4.90;;;;;;;;;;5079049;28;20534;-56
2023/05/12 06:00:47;;;;;;;5.10;4.60;;;;;;;;;;5078940;28;20449;-57
2023/05/12 06:03:15;;;;;;;7.60;4.63;;;;;;;;;;5078745;28;20547;-57
2023/05/12 06:05:42;;;;;;;5.60;5.10;;;;;;;;;;5079079;28;20495;-57
2023/05/12 06:08:12;;;;;;;5.90;4.70;;;;;;;;;;5078887;28;20815;-58
2023/05/12 06:10:39;;;;;;;4.47;4.17;;;;;;;;;;5079095;28;20454;-58
2023/05/12 06:13:06;;;;;;;5.90;4.93;;;;;;;;;;5078924;28;20453;-57
2023/05/12 06:15:33;;;;;;;6.80;4.10;;;;;;;;;;5079120;28;20452;-58
2023/05/12 06:18:00;;;;;;;5.43;4.90;;;;;;;;;;5079022;28;20451;-58
2023/05/12 06:20:28;;;;;;;5.37;4.87;;;;;;;;;;5078949;28;20454;-56
2023/05/12 06:22:55;;;;;;;5.63;5.10;;;;;;;;;;5078779;28;20579;-59
2023/05/12 06:25:22;;;;;;;5.83;4.43;;;;;;;;;;5078751;28;20851;-57
2023/05/12 06:27:51;;;;;;;5.13;4.50;;;;;;;;;;5078653;28;20535;-58
2023/05/12 06:30:18;;;;;;;5.90;4.73;;;;;;;;;;5078862;28;20447;-57
2023/05/12 06:32:45;;;;;;;5.43;4.60;;;;;;;;;;5078833;28;20444;-58
2023/05/12 06:35:12;;;;;;;5.90;4.33;;;;;;;;;;5077372;28;20445;-57
2023/05/12 06:37:40;;;;;;;5.60;4.57;;;;;;;;;;5075394;28;20481;-57
2023/05/12 06:40:08;;;;;;;8.43;5.00;;;;;;;;;;5075241;28;20544;-57
2023/05/12 06:42:34;;;;;;;9.63;5.40;;;;;;;;;;5075095;28;20500;-57
2023/05/12 06:45:02;;;;;;;13.03;5.17;;;;;;;;;;5075444;28;20574;-57
2023/05/12 06:47:29;;;;;;;9.43;4.93;;;;;;;;;;5075426;28;20450;-58
2023/05/12 06:49:56;;;;;;;4.90;4.50;;;;;;;;;;5075339;28;20540;-58
2023/05/12 06:52:23;;;;;;;5.70;4.97;;;;;;;;;;5075149;28;20453;-58
2023/05/12 06:54:51;;;;;;;5.07;4.57;;;;;;;;;;5074990;28;20528;-59
2023/05/12 06:57:18;;;;;;;5.93;4.30;;;;;;;;;;5074898;28;20550;-57
2023/05/12 06:59:46;;;;;;;7.80;4.80;;;;;;;;;;5087852;28;20479;-57
2023/05/12 07:02:12;;;;;;;6.27;3.97;;;;;;;;;;5093418;28;20568;-57
2023/05/12 07:04:39;;;;;;;7.67;4.57;;;;;;;;;;5092137;28;20455;-58
2023/05/12 07:07:06;;;;;;;4.93;4.23;;;;;;;;;;5074851;28;20454;-58
2023/05/12 07:09:33;;;;;;;4.53;4.13;;;;;;;;;;5086099;28;20444;-59
2023/05/12 07:12:02;;;;;;;4.00;3.70;;;;;;;;;;5095188;28;20544;-58
2023/05/12 07:14:29;;;;;;;15.13;4.90;;;;;;;;;;5095177;28;20524;-58
2023/05/12 07:16:56;;;;;;;9.03;4.50;;;;;;;;;;5094999;28;20455;-57
2023/05/12 07:19:23;;;;;;;6.70;4.93;;;;;;;;;;5094952;28;20447;-57
2023/05/12 07:21:50;;;;;;;5.80;4.50;;;;;;;;;;5093832;28;20544;-57
2023/05/12 07:24:17;;;;;;;9.13;4.23;;;;;;;;;;5094629;28;20219;-58
2023/05/12 07:26:44;;;;;;;5.40;4.47;;;;;;;;;;5094892;28;20546;-58
2023/05/12 07:29:12;;;;;;;4.83;4.30;;;;;;;;;;5094728;28;20449;-57
2023/05/12 07:31:39;;;;;;;6.03;4.33;;;;;;;;;;5094725;28;21012;-57
2023/05/12 07:34:06;;;;;;;6.90;4.27;;;;;;;;;;5084754;28;20449;-58
2023/05/12 07:36:33;;;;;;;6.27;4.43;;;;;;;;;;5074288;28;20545;-59
2023/05/12 07:39:00;;;;;;;9.40;4.80;;;;;;;;;;5074166;28;20450;-58
2023/05/12 07:41:27;;;;;;;6.77;5.30;;;;;;;;;;5074194;28;20898;-58
2023/05/12 07:43:53;;;;;;;4.43;4.13;;;;;;;;;;5074153;28;20512;-58
2023/05/12 07:46:22;;;;;;;7.60;4.67;;;;;;;;;;5073583;28;20450;-58
2023/05/12 07:48:49;;;;;;;6.63;3.60;;;;;;;;;;5074074;28;20456;-59
2023/05/12 07:51:16;;;;;;;4.50;4.10;;;;;;;;;;5074004;28;20519;-59
2023/05/12 07:53:43;;;;;;;8.27;3.87;;;;;;;;;;5073870;28;20451;-59
2023/05/12 07:56:10;;;;;;;6.07;3.80;;;;;;;;;;5086034;28;20537;-57
2023/05/12 07:58:37;;;;;;;3.50;3.20;;;;;;;;;;5093915;28;21020;-58
2023/05/12 08:01:05;;;;;;;8.60;3.13;;;;;;;;;;5094096;28;20467;-57
2023/05/12 08:03:33;;;;;;;4.80;3.33;;;;;;;;;;5094041;28;20999;-57
2023/05/12 08:06:02;;;;;;;3.80;3.30;;;;;;;;;;5093839;28;20540;-58
2023/05/12 08:08:29;;;;;;;3.73;3.00;;;;;;;;;;5094006;28;20819;-57
2023/05/12 08:10:56;;;;;;;3.97;3.63;;;;;;;;;;5093978;28;20549;-58
2023/05/12 08:13:22;;;;;;;4.80;3.57;;;;;;;;;;5087676;28;20503;-57
2023/05/12 08:15:49;;;;;;;9.77;3.60;;;;;;;;;;5073715;28;20451;-58
2023/05/12 08:18:16;;;;;;;3.60;3.30;;;;;;;;;;5073543;28;20490;-58
2023/05/12 08:20:45;;;;;;;3.83;3.33;;;;;;;;;;5073621;28;20784;-57
2023/05/12 08:23:11;;;;;;;4.57;4.07;;;;;;;;;;5073460;28;20489;-58
2023/05/12 08:25:40;;;;;;;7.73;3.53;;;;;;;;;;5073542;28;20530;-58
2023/05/12 08:28:06;;;;;;;6.60;3.30;;;;;;;;;;5073503;28;20461;-58
2023/05/12 08:30:33;;;;;;;5.67;3.33;;;;;;;;;;5073455;28;20450;-57
2023/05/12 08:33:00;;;;;;;3.67;3.47;;;;;;;;;;5073791;28;20948;-58
2023/05/12 08:35:27;;;;;;;4.40;2.97;;;;;;;;;;5073260;28;20984;-58
2023/05/12 08:37:57;;;;;;;5.10;3.10;;;;;;;;;;5073412;28;20542;-58
2023/05/12 08:40:25;;;;;;;4.10;3.43;;;;;;;;;;5073335;28;20501;-58
2023/05/12 08:42:54;;;;;;;5.85;3.50;;;;;;;;;;5072411;28;20458;-57
2023/05/12 08:45:22;;;;;;;3.33;3.13;;;;;;;;;;5072873;28;20186;-58
2023/05/12 08:47:50;;;;;;;6.03;3.60;;;;;;;;;;5072868;28;20469;-56
2023/05/12 08:50:18;;;;;;;4.83;3.30;;;;;;;;;;5073104;28;20483;-55
2023/05/12 08:52:45;;;;;;;3.53;3.17;;;;;;;;;;5073125;28;20534;-56
2023/05/12 08:55:14;;;;;;;6.37;3.20;;;;;;;;;;5073185;28;20558;-56
2023/05/12 08:57:44;;;;;;;3.23;2.93;;;;;;;;;;5072899;28;20539;-56
2023/05/12 09:00:12;;;;;;;4.93;3.00;;;;;;;;;;5072727;28;20605;-56
2023/05/12 09:02:39;;;;;;;5.80;3.43;;;;;;;;;;5072724;28;20452;-56
2023/05/12 09:05:07;;;;;;;3.93;3.07;;;;;;;;;;5072999;28;20458;-56
2023/05/12 09:07:34;;;;;;;3.23;2.83;;;;;;;;;;5072982;28;20459;-55
2023/05/12 09:10:01;;;;;;;3.20;2.70;;;;;;;;;;5072840;28;20457;-57
2023/05/12 09:12:31;;;;;;;5.27;3.30;;;;;;;;;;5072787;28;20546;-56
2023/05/12 09:15:00;;;;;;;4.03;3.13;;;;;;;;;;5072818;28;20447;-57
2023/05/12 09:17:27;;;;;;;5.73;2.90;;;;;;;;;;5073023;28;20811;-58
2023/05/12 09:19:54;;;;;;;3.10;2.73;;;;;;;;;;5081877;28;20465;-57
2023/05/12 09:22:28;;;;;;;5.30;2.60;;;;;;;;;;5092435;28;20452;-58
2023/05/12 09:24:55;;;;;;;4.53;2.90;;;;;;;;;;5092535;28;20528;-58
2023/05/12 09:27:25;;;;;;;3.67;3.07;;;;;;;;;;5092533;28;20787;-58
2023/05/12 09:29:54;;;;;;;3.57;2.60;;;;;;;;;;5091880;28;20457;-56
2023/05/12 09:32:31;;;;;;;5.50;3.33;;;;;;;;;;5079091;28;20509;-57
2023/05/12 09:35:02;;;;;;;6.30;3.40;;;;;;;;;;5085837;28;20452;-58
2023/05/12 09:37:31;;;;;;;4.90;3.10;;;;;;;;;;5086555;28;20447;-58
2023/05/12 09:40:01;;;;;;;4.20;2.97;;;;;;;;;;5090915;28;20454;-58
2023/05/12 09:42:29;;;;;;;3.00;2.70;;;;;;;;;;5089886;28;20483;-58
2023/05/12 09:44:59;;;;;;;8.30;3.10;;;;;;;;;;5092557;28;20518;-58
2023/05/12 09:47:28;;;;;;;5.22;3.33;;;;;;;;;;5090457;28;20544;-58
2023/05/12 09:49:56;;;;;;;7.77;3.00;;;;;;;;;;5092428;28;20552;-58
2023/05/12 09:52:23;;;;;;;2.87;2.67;;;;;;;;;;5092380;28;20450;-58
2023/05/12 09:54:51;;;;;;;4.33;3.20;;;;;;;;;;5092929;28;20462;-58
2023/05/12 09:57:21;;;;;;;10.10;8.83;;;;;;;;;;5092577;28;20453;-58
2023/05/12 09:59:48;;;;;;;7.00;3.57;;;;;;;;;;5092388;28;20475;-58
2023/05/12 10:02:17;;;;;;;4.60;3.27;;;;;;;;;;5092613;28;20880;-58
2023/05/12 10:04:45;;;;;;;7.90;4.10;;;;;;;;;;5092173;28;20487;-58
2023/05/12 10:07:13;;;;;;;9.97;3.40;;;;;;;;;;5092152;28;20815;-58
2023/05/12 10:09:41;;;;;;;3.73;3.43;;;;;;;;;;5093571;28;20803;-58
2023/05/12 10:12:09;;;;;;;3.17;2.97;;;;;;;;;;5096471;28;20451;-58
2023/05/12 10:14:36;;;;;;;4.20;3.90;;;;;;;;;;5096244;28;20482;-58
2023/05/12 10:17:03;;;;;;;2.93;2.60;;;;;;;;;;5096196;28;20446;-58
2023/05/12 10:19:31;;;;;;;4.17;3.13;;;;;;;;;;5096222;28;20461;-58
2023/05/12 10:21:58;;;;;;;5.63;3.07;;;;;;;;;;5096203;28;20446;-58
2023/05/12 10:24:26;;;;;;;3.73;3.07;;;;;;;;;;5096100;28;20837;-58
2023/05/12 10:26:54;;;;;;;4.20;3.60;;;;;;;;;;5095927;28;20930;-58
2023/05/12 10:29:28;;;;;;;4.87;3.50;;;;;;;;;;5095963;28;20446;-58
2023/05/12 10:31:55;;;;;;;6.63;3.83;;;;;;;;;;5095855;28;20450;-58
2023/05/12 10:34:22;;;;;;;3.10;2.90;;;;;;;;;;5096046;28;20538;-59
2023/05/12 10:36:52;;;;;;;3.03;2.83;;;;;;;;;;5096037;28;20446;-58
2023/05/12 10:39:19;;;;;;;3.07;2.80;;;;;;;;;;5095889;28;20443;-58
2023/05/12 10:41:46;;;;;;;4.03;2.90;;;;;;;;;;5095847;28;20585;-58
2023/05/12 10:44:13;;;;;;;3.23;2.80;;;;;;;;;;5095549;28;20869;-58
2023/05/12 10:46:40;;;;;;;4.87;2.70;;;;;;;;;;5095805;28;20446;-59
2023/05/12 10:49:08;;;;;;;5.67;3.07;;;;;;;;;;5095837;28;20453;-59
2023/05/12 10:51:47;;;;;;;3.97;2.50;;;;;;;;;;5095557;28;20451;-58
2023/05/12 10:54:19;;;;;;;2.70;2.50;;;;;;;;;;5095490;28;20961;-58
2023/05/12 10:56:47;;;;;;;5.60;2.70;;;;;;;;;;5095513;28;20538;-58
2023/05/12 10:59:16;;;;;;;3.70;2.53;;;;;;;;;;5095691;28;20447;-58
2023/05/12 11:01:43;;;;;;;3.67;2.63;;;;;;;;;;5095562;28;20500;-58
2023/05/12 11:04:11;;;;;;;9.67;2.53;;;;;;;;;;5095265;28;20486;-58
2023/05/12 11:06:38;;;;;;;3.10;2.40;;;;;;;;;;5095109;28;20451;-58
2023/05/12 11:09:06;;;;;;;12.03;7.50;;;;;;;;;;5095248;28;20447;-58
2023/05/12 11:11:34;;;;;;;5.77;2.80;;;;;;;;;;5095436;28;20450;-58
2023/05/12 11:14:01;;;;;;;4.33;4.03;;;;;;;;;;5095409;28;20451;-58
2023/05/12 11:16:28;;;;;;;4.77;4.37;;;;;;;;;;5095144;28;20459;-58
2023/05/12 11:19:02;;;;;;;3.73;2.90;;;;;;;;;;5095360;28;20542;-58
2023/05/12 11:21:30;;;;;;;2.80;2.60;;;;;;;;;;5094147;28;20450;-58
2023/05/12 11:23:57;;;;;;;2.93;2.57;;;;;;;;;;5095067;28;20471;-58
2023/05/12 11:26:24;;;;;;;3.20;2.90;;;;;;;;;;5095152;28;20530;-58
2023/05/12 11:28:53;;;;;;;3.97;2.40;;;;;;;;;;5095041;28;20505;-58
2023/05/12 11:31:20;;;;;;;6.20;2.70;;;;;;;;;;5094870;28;20447;-58
2023/05/12 11:33:47;;;;;;;7.37;3.07;;;;;;;;;;5094840;28;20549;-58
2023/05/12 11:36:14;;;;;;;3.47;2.80;;;;;;;;;;5094797;28;20451;-58
2023/05/12 11:38:48;;;;;;;4.90;2.70;;;;;;;;;;5094928;28;20460;-59
2023/05/12 11:41:21;;;;;;;6.13;2.60;;;;;;;;;;5094565;28;20586;-58
2023/05/12 11:43:48;;;;;;;2.80;2.23;;;;;;;;;;5094501;28;20470;-58
2023/05/12 11:46:25;;;;;;;7.37;2.67;;;;;;;;;;5094464;28;20447;-58
2023/05/12 11:48:56;;;;;;;4.10;2.10;;;;;;;;;;5094360;28;20486;-59
2023/05/12 11:51:23;;;;;;;4.07;2.40;;;;;;;;;;5094483;28;20453;-58
2023/05/12 11:53:50;;;;;;;2.27;2.10;;;;;;;;;;5094511;28;20486;-59
2023/05/12 11:56:21;;;;;;;3.53;2.77;;;;;;;;;;5094174;28;20451;-58
2023/05/12 11:58:55;;;;;;;5.30;2.10;;;;;;;;;;5094229;28;20446;-58
2023/05/12 12:01:22;;;;;;;2.50;2.30;;;;;;;;;;5093957;28;20980;-58
2023/05/12 12:03:52;;;;;;;5.90;2.70;;;;;;;;;;5094228;28;20474;-58
2023/05/12 12:06:19;;;;;;;3.30;2.37;;;;;;;;;;5094114;28;20447;-58
2023/05/12 12:08:53;;;;;;;3.43;3.00;;;;;;;;;;5094059;28;20458;-58
2023/05/12 12:11:20;;;;;;;2.57;2.43;;;;;;;;;;5094030;28;20856;-58
2023/05/12 12:13:49;;;;;;;4.20;2.70;;;;;;;;;;5093853;28;20443;-58
2023/05/12 12:16:20;;;;;;;3.10;2.80;;;;;;;;;;5094052;28;20457;-59
2023/05/12 12:18:47;;;;;;;4.90;2.77;;;;;;;;;;5093921;28;20539;-58
2023/05/12 12:21:15;;;;;;;5.77;2.50;;;;;;;;;;5093919;28;20451;-60
2023/05/12 12:23:42;;;;;;;8.00;3.47;;;;;;;;;;5093642;28;20482;-59
2023/05/12 12:26:13;;;;;;;3.10;2.33;;;;;;;;;;5093722;28;20447;-59
2023/05/12 12:28:39;;;;;;;3.80;3.07;;;;;;;;;;5093776;28;20447;-59
2023/05/12 12:31:13;;;;;;;3.13;2.33;;;;;;;;;;5094116;28;20475;-58
2023/05/12 12:33:40;;;;;;;5.57;2.43;;;;;;;;;;5093589;28;20451;-58
2023/05/12 12:36:07;;;;;;;3.13;2.93;;;;;;;;;;5093502;28;20796;-58
2023/05/12 12:38:35;;;;;;;3.60;2.80;;;;;;;;;;5093482;28;20537;-58
2023/05/12 12:41:04;;;;;;;3.13;2.90;;;;;;;;;;5093259;28;20471;-58
2023/05/12 12:43:31;;;;;;;4.60;2.47;;;;;;;;;;5093497;28;20459;-58
2023/05/12 12:45:58;;;;;;;4.23;2.50;;;;;;;;;;5093427;28;20483;-58
2023/05/12 12:48:27;;;;;;;3.97;2.50;;;;;;;;;;5093409;28;20818;-58
2023/05/12 12:50:54;;;;;;;3.73;2.23;;;;;;;;;;5093614;28;20453;-58
2023/05/12 12:53:21;;;;;;;2.50;2.30;;;;;;;;;;5093160;28;20479;-59
2023/05/12 12:55:49;;;;;;;3.37;2.83;;;;;;;;;;5093437;28;20494;-59
2023/05/12 12:58:16;;;;;;;2.60;2.40;;;;;;;;;;5093194;28;20477;-58
2023/05/12 13:00:43;;;;;;;4.53;2.30;;;;;;;;;;5093154;28;20461;-58
2023/05/12 13:03:10;;;;;;;4.20;2.40;;;;;;;;;;5093160;28;20543;-58
2023/05/12 13:05:37;;;;;;;5.93;2.97;;;;;;;;;;5092931;28;20474;-58
2023/05/12 13:08:04;;;;;;;4.50;2.93;;;;;;;;;;5092941;28;20533;-59
2023/05/12 13:10:31;;;;;;;2.70;2.33;;;;;;;;;;5093058;28;20509;-58
2023/05/12 13:13:00;;;;;;;2.63;2.43;;;;;;;;;;5093054;28;20538;-58
2023/05/12 13:15:27;;;;;;;3.30;2.10;;;;;;;;;;5092916;28;20458;-58
2023/05/12 13:17:54;;;;;;;4.30;2.30;;;;;;;;;;5092875;28;20447;-58
2023/05/12 13:20:21;;;;;;;3.00;2.70;;;;;;;;;;5092805;28;20447;-59
2023/05/12 13:22:48;;;;;;;2.40;2.20;;;;;;;;;;5093239;28;20447;-58
2023/05/12 13:25:15;;;;;;;2.03;1.93;;;;;;;;;;5092898;28;20573;-59
2023/05/12 13:27:41;;;;;;;2.90;2.20;;;;;;;;;;5093045;28;20504;-58
2023/05/12 13:30:10;;;;;;;3.53;2.50;;;;;;;;;;5092852;28;20447;-61
2023/05/12 13:32:37;;;;;;;2.47;2.27;;;;;;;;;;5092854;28;20459;-58
2023/05/12 13:35:07;;;;;;;2.87;2.20;;;;;;;;;;5092565;28;20969;-58
2023/05/12 13:37:34;;;;;;;4.80;2.60;;;;;;;;;;5092992;28;20455;-58
2023/05/12 13:40:03;;;;;;;2.50;2.20;;;;;;;;;;5092972;28;20601;-58
2023/05/12 13:42:29;;;;;;;3.43;2.93;;;;;;;;;;5093046;28;20546;-58
2023/05/12 13:44:56;;;;;;;2.40;2.30;;;;;;;;;;5093823;28;20480;-58
2023/05/12 13:47:25;;;;;;;3.87;2.43;;;;;;;;;;5096999;28;20526;-60
2023/05/12 13:49:52;;;;;;;2.67;2.47;;;;;;;;;;5096652;28;20453;-58
2023/05/12 13:52:18;;;;;;;3.67;2.17;;;;;;;;;;5096773;28;20458;-58
2023/05/12 13:54:45;;;;;;;4.83;2.30;;;;;;;;;;5096747;28;20457;-58
2023/05/12 13:57:13;;;;;;;2.30;2.20;;;;;;;;;;5096600;28;20446;-58
2023/05/12 13:59:40;;;;;;;6.10;2.00;;;;;;;;;;5096311;28;20454;-58
2023/05/12 14:02:08;;;;;;;3.33;2.53;;;;;;;;;;5096378;28;20451;-59
2023/05/12 14:04:36;;;;;;;3.70;2.43;;;;;;;;;;5096550;28;20454;-58
2023/05/12 14:07:03;;;;;;;3.57;2.40;;;;;;;;;;5096613;28;20549;-58
2023/05/12 14:09:30;;;;;;;4.00;2.60;;;;;;;;;;5096346;28;20453;-58
2023/05/12 14:11:57;;;;;;;2.63;2.43;;;;;;;;;;5096447;28;20515;-58
2023/05/12 14:14:24;;;;;;;2.80;2.00;;;;;;;;;;5096593;28;20537;-58
2023/05/12 14:16:51;;;;;;;3.57;2.13;;;;;;;;;;5096261;28;20451;-58
2023/05/12 14:19:18;;;;;;;2.43;2.23;;;;;;;;;;5096392;28;20479;-59
2023/05/12 14:21:46;;;;;;;2.50;2.30;;;;;;;;;;5096313;28;20551;-58
2023/05/12 14:24:14;;;;;;;4.43;2.60;;;;;;;;;;5096295;28;20447;-58
2023/05/12 14:26:41;;;;;;;3.50;2.33;;;;;;;;;;5096032;28;20482;-58
2023/05/12 14:29:08;;;;;;;5.50;2.20;;;;;;;;;;5096055;28;20489;-59
2023/05/12 14:31:35;;;;;;;3.30;2.30;;;;;;;;;;5095994;28;20445;-58
2023/05/12 14:34:03;;;;;;;4.37;2.63;;;;;;;;;;5096107;28;21005;-59
2023/05/12 14:36:30;;;;;;;2.77;2.30;;;;;;;;;;5096169;28;20450;-58
2023/05/12 14:38:59;;;;;;;3.47;2.83;;;;;;;;;;5095852;28;20511;-59
2023/05/12 14:41:26;;;;;;;2.40;2.30;;;;;;;;;;5095649;28;20475;-58
2023/05/12 14:43:52;;;;;;;3.27;2.43;;;;;;;;;;5096268;28;20563;-59
2023/05/12 14:46:19;;;;;;;4.20;2.80;;;;;;;;;;5095853;28;20842;-58